Time;durP1;ratioP1;P1;durP2;ratioP2;P2;SDS_P1;SDS_P2;PMS_P1;PMS_P2;Temp;Humidity;BMP_temperature;BMP_pressure;BME280_temperature;BME280_humidity;BME280_pressure;Samples;Min_cycle;Max_cycle;Signal;HPM_P1;HPM_P2
2022/06/16 00:00:28;;;;;;;11.88;7.97;;;;;;;;;;5076032;28;20028;-67
2022/06/16 00:02:54;;;;;;;11.70;7.43;;;;;;;;;;5081523;28;20062;-67
2022/06/16 00:05:22;;;;;;;12.60;7.80;;;;;;;;;;5082498;28;20596;-66
2022/06/16 00:07:48;;;;;;;15.63;8.40;;;;;;;;;;5083041;28;20107;-66
2022/06/16 00:10:15;;;;;;;11.82;8.48;;;;;;;;;;5093303;28;20083;-67
2022/06/16 00:12:40;;;;;;;13.75;7.60;;;;;;;;;;5090616;28;20025;-67
2022/06/16 00:15:08;;;;;;;12.95;8.32;;;;;;;;;;5085184;28;20028;-67
2022/06/16 00:17:33;;;;;;;13.55;7.90;;;;;;;;;;5089454;28;20036;-66
2022/06/16 00:20:01;;;;;;;12.23;8.40;;;;;;;;;;5092568;27;20061;-67
2022/06/16 00:22:27;;;;;;;13.30;8.35;;;;;;;;;;5096566;28;20047;-67
2022/06/16 00:24:53;;;;;;;13.60;7.93;;;;;;;;;;5088282;28;20024;-67
2022/06/16 00:27:18;;;;;;;13.57;7.95;;;;;;;;;;5087169;28;20386;-67
2022/06/16 00:29:44;;;;;;;12.07;7.85;;;;;;;;;;5078741;28;20036;-66
2022/06/16 00:32:09;;;;;;;12.07;8.18;;;;;;;;;;5087939;28;20508;-66
2022/06/16 00:34:35;;;;;;;9.75;8.05;;;;;;;;;;5085774;28;20016;-66
2022/06/16 00:37:00;;;;;;;11.63;7.68;;;;;;;;;;5086712;28;20051;-66
2022/06/16 00:39:25;;;;;;;10.68;7.68;;;;;;;;;;5089462;28;20089;-66
2022/06/16 00:41:51;;;;;;;12.70;8.65;;;;;;;;;;5084802;28;20032;-66
2022/06/16 00:44:28;;;;;;;11.43;7.95;;;;;;;;;;5086641;28;20119;-67
2022/06/16 00:46:54;;;;;;;11.85;8.18;;;;;;;;;;5090607;28;20024;-66
2022/06/16 00:49:19;;;;;;;13.50;8.45;;;;;;;;;;5085621;28;20082;-66
2022/06/16 00:51:49;;;;;;;14.95;9.13;;;;;;;;;;5087990;28;20044;-66
2022/06/16 00:54:25;;;;;;;14.50;8.93;;;;;;;;;;5084212;28;20023;-67
2022/06/16 00:56:54;;;;;;;14.40;8.55;;;;;;;;;;5087796;28;20032;-66
2022/06/16 00:59:21;;;;;;;17.35;8.60;;;;;;;;;;5089511;28;20040;-66
2022/06/16 01:01:47;;;;;;;14.05;8.18;;;;;;;;;;5084741;28;20020;-66
2022/06/16 01:07:00;;;;;;;11.63;8.18;;;;;;;;;;5086702;28;20036;-66
2022/06/16 01:09:30;;;;;;;8.90;6.95;;;;;;;;;;5087308;28;20071;-66
2022/06/16 01:15:25;;;;;;;10.43;7.00;;;;;;;;;;5089980;28;20066;-66
2022/06/16 01:18:09;;;;;;;14.38;8.02;;;;;;;;;;5088464;28;20032;-66
2022/06/16 01:20:46;;;;;;;17.00;9.68;;;;;;;;;;5083693;28;20141;-66
2022/06/16 01:23:46;;;;;;;11.93;8.57;;;;;;;;;;5088439;28;20036;-66
2022/06/16 01:26:12;;;;;;;16.70;8.77;;;;;;;;;;5083251;28;20046;-66
2022/06/16 01:29:05;;;;;;;13.65;8.82;;;;;;;;;;5085916;28;20050;-66
2022/06/16 01:31:47;;;;;;;16.48;8.80;;;;;;;;;;5094118;28;20052;-66
2022/06/16 01:34:23;;;;;;;13.13;8.82;;;;;;;;;;5083278;28;20087;-66
2022/06/16 01:36:53;;;;;;;12.52;9.07;;;;;;;;;;5085712;28;20039;-66
2022/06/16 01:39:29;;;;;;;13.45;8.70;;;;;;;;;;5088862;28;20032;-67
2022/06/16 01:42:02;;;;;;;14.25;9.20;;;;;;;;;;5086090;28;20020;-67
2022/06/16 01:44:55;;;;;;;14.75;8.95;;;;;;;;;;5096056;28;20031;-66
2022/06/16 01:47:23;;;;;;;12.77;9.38;;;;;;;;;;5084091;28;20127;-66
2022/06/16 01:49:54;;;;;;;13.45;9.10;;;;;;;;;;5087012;28;20016;-66
2022/06/16 01:52:27;;;;;;;13.20;8.50;;;;;;;;;;5081349;28;20011;-66
2022/06/16 01:54:55;;;;;;;;;;;;;;;;;;5097792;28;20034;-66
2022/06/16 01:57:28;;;;;;;13.48;8.23;;;;;;;;;;5089943;28;19920;-66
2022/06/16 02:00:08;;;;;;;11.60;7.93;;;;;;;;;;5086067;28;20040;-66
2022/06/16 02:02:36;;;;;;;12.35;8.88;;;;;;;;;;5086397;28;20170;-66
2022/06/16 02:05:07;;;;;;;10.80;8.50;;;;;;;;;;5087258;28;20131;-66
2022/06/16 02:07:42;;;;;;;13.18;8.63;;;;;;;;;;5088373;28;20027;-66
2022/06/16 02:10:17;;;;;;;13.85;9.18;;;;;;;;;;5088348;28;20181;-66
2022/06/16 02:12:58;;;;;;;11.85;8.40;;;;;;;;;;5090157;28;20032;-66
2022/06/16 02:15:35;;;;;;;14.10;10.18;;;;;;;;;;5087890;28;20064;-66
2022/06/16 02:18:03;;;;;;;12.85;9.63;;;;;;;;;;5089202;28;20028;-66
2022/06/16 02:20:37;;;;;;;13.65;9.57;;;;;;;;;;5082881;28;20520;-66
2022/06/16 02:23:03;;;;;;;16.63;10.05;;;;;;;;;;5088813;28;20055;-66
2022/06/16 02:25:28;;;;;;;14.02;9.55;;;;;;;;;;5089643;28;20023;-66
2022/06/16 02:27:54;;;;;;;13.45;9.70;;;;;;;;;;5088997;28;20028;-66
2022/06/16 02:30:19;;;;;;;18.05;11.60;;;;;;;;;;5080862;28;20024;-67
2022/06/16 02:33:21;;;;;;;17.17;11.10;;;;;;;;;;5081173;28;20038;-66
2022/06/16 02:36:02;;;;;;;16.13;11.27;;;;;;;;;;5089429;28;20071;-66
2022/06/16 02:38:33;;;;;;;18.80;11.07;;;;;;;;;;5093537;28;20062;-66
2022/06/16 02:41:18;;;;;;;17.75;11.73;;;;;;;;;;5090028;27;20467;-66
2022/06/16 02:43:47;;;;;;;18.60;11.38;;;;;;;;;;5087873;28;20119;-66
2022/06/16 02:46:23;;;;;;;19.08;12.27;;;;;;;;;;5090288;28;20127;-66
2022/06/16 02:48:57;;;;;;;17.67;12.32;;;;;;;;;;5098203;28;20036;-66
2022/06/16 02:51:36;;;;;;;22.27;12.27;;;;;;;;;;5090123;28;20861;-66
2022/06/16 02:54:20;;;;;;;16.83;11.45;;;;;;;;;;5085216;28;20036;-66
2022/06/16 02:57:13;;;;;;;13.43;10.43;;;;;;;;;;5087569;28;20066;-66
2022/06/16 02:59:47;;;;;;;14.73;10.50;;;;;;;;;;5090105;28;20052;-66
2022/06/16 03:02:20;;;;;;;14.10;10.48;;;;;;;;;;5088491;28;20032;-66
2022/06/16 03:04:52;;;;;;;18.33;10.15;;;;;;;;;;5091898;28;20023;-66
2022/06/16 03:07:18;;;;;;;15.60;10.68;;;;;;;;;;5087040;28;20488;-66
2022/06/16 03:09:44;;;;;;;17.58;10.38;;;;;;;;;;5087921;28;20032;-67
2022/06/16 03:12:11;;;;;;;14.02;9.70;;;;;;;;;;5089132;28;20046;-66
2022/06/16 03:14:37;;;;;;;15.80;9.63;;;;;;;;;;5092976;28;20317;-67
2022/06/16 03:17:05;;;;;;;15.05;9.55;;;;;;;;;;5087943;28;20450;-66
2022/06/16 03:19:30;;;;;;;15.30;9.35;;;;;;;;;;5078251;28;20097;-66
2022/06/16 03:21:56;;;;;;;17.30;9.77;;;;;;;;;;5086539;28;20766;-66
2022/06/16 03:24:22;;;;;;;14.00;10.02;;;;;;;;;;5091441;28;20572;-66
2022/06/16 03:26:48;;;;;;;17.70;10.98;;;;;;;;;;5082422;28;20058;-66
2022/06/16 03:29:14;;;;;;;17.50;12.05;;;;;;;;;;5084154;28;20042;-66
2022/06/16 03:31:39;;;;;;;19.17;12.65;;;;;;;;;;5088996;28;20108;-66
2022/06/16 03:34:05;;;;;;;18.00;11.50;;;;;;;;;;5079576;28;20028;-66
2022/06/16 03:36:31;;;;;;;16.77;11.20;;;;;;;;;;5091782;28;20071;-66
2022/06/16 03:38:57;;;;;;;18.30;11.13;;;;;;;;;;5091869;28;20066;-66
2022/06/16 03:41:22;;;;;;;16.80;11.18;;;;;;;;;;5088002;28;20063;-66
2022/06/16 03:43:47;;;;;;;16.55;11.05;;;;;;;;;;5086085;28;20024;-66
2022/06/16 03:46:14;;;;;;;18.45;11.68;;;;;;;;;;5090747;28;20095;-66
2022/06/16 03:48:40;;;;;;;23.05;13.38;;;;;;;;;;5087036;28;20044;-66
2022/06/16 03:51:06;;;;;;;19.15;12.93;;;;;;;;;;5075568;28;20040;-66
2022/06/16 03:53:32;;;;;;;16.98;10.65;;;;;;;;;;5087110;28;20044;-66
2022/06/16 03:55:58;;;;;;;15.63;10.35;;;;;;;;;;5085867;28;20032;-66
2022/06/16 03:58:23;;;;;;;18.92;10.52;;;;;;;;;;5086291;28;20026;-66
2022/06/16 04:00:50;;;;;;;13.90;9.93;;;;;;;;;;5085742;28;20040;-66
2022/06/16 04:06:00;;;;;;;13.18;9.82;;;;;;;;;;5082030;28;20035;-66
2022/06/16 04:08:25;;;;;;;13.27;9.30;;;;;;;;;;5083218;28;20118;-66
2022/06/16 04:10:51;;;;;;;15.05;10.27;;;;;;;;;;5085482;28;20027;-66
2022/06/16 04:13:16;;;;;;;14.75;10.32;;;;;;;;;;5086578;28;20035;-66
2022/06/16 04:15:42;;;;;;;14.02;9.88;;;;;;;;;;5098439;28;20858;-66
2022/06/16 04:18:08;;;;;;;13.00;9.60;;;;;;;;;;5090152;28;20040;-66
2022/06/16 04:20:34;;;;;;;13.48;9.75;;;;;;;;;;5085328;28;20032;-66
2022/06/16 04:23:00;;;;;;;16.75;11.32;;;;;;;;;;5085671;28;20115;-66
2022/06/16 04:25:32;;;;;;;15.90;11.32;;;;;;;;;;5092164;28;20067;-66
2022/06/16 04:27:59;;;;;;;19.25;12.27;;;;;;;;;;5085075;28;20047;-66
2022/06/16 04:30:24;;;;;;;19.63;11.60;;;;;;;;;;5078800;28;20035;-66
2022/06/16 04:32:50;;;;;;;16.70;12.23;;;;;;;;;;5088753;28;20036;-66
2022/06/16 04:35:15;;;;;;;17.65;12.07;;;;;;;;;;5087447;28;20059;-66
2022/06/16 04:37:40;;;;;;;17.42;12.65;;;;;;;;;;5092508;28;20035;-66
2022/06/16 04:40:08;;;;;;;19.92;12.35;;;;;;;;;;5085483;28;20040;-66
2022/06/16 04:42:33;;;;;;;21.00;12.05;;;;;;;;;;5090741;28;20054;-66
2022/06/16 04:44:59;;;;;;;21.00;12.23;;;;;;;;;;5088907;28;20055;-66
2022/06/16 04:47:25;;;;;;;20.80;12.60;;;;;;;;;;5086993;28;20033;-66
2022/06/16 04:49:50;;;;;;;16.77;11.93;;;;;;;;;;5080241;28;20017;-66
2022/06/16 04:52:17;;;;;;;19.13;13.13;;;;;;;;;;5089413;28;20031;-66
2022/06/16 04:54:47;;;;;;;20.70;13.25;;;;;;;;;;5090286;28;20032;-66
2022/06/16 04:57:13;;;;;;;20.55;13.15;;;;;;;;;;5091232;28;20577;-66
2022/06/16 04:59:38;;;;;;;21.35;12.70;;;;;;;;;;5089535;28;20036;-66
2022/06/16 05:02:04;;;;;;;19.40;13.25;;;;;;;;;;5094903;28;20092;-66
2022/06/16 05:04:30;;;;;;;19.27;14.10;;;;;;;;;;5083143;28;20018;-66
2022/06/16 05:06:56;;;;;;;20.80;14.00;;;;;;;;;;5086524;28;20032;-66
2022/06/16 05:09:22;;;;;;;21.33;14.23;;;;;;;;;;5093519;28;20029;-66
2022/06/16 05:11:48;;;;;;;24.20;15.48;;;;;;;;;;5091020;28;20032;-66
2022/06/16 05:14:13;;;;;;;23.75;15.57;;;;;;;;;;5098280;28;20028;-66
2022/06/16 05:16:38;;;;;;;24.00;15.48;;;;;;;;;;5095324;27;20027;-66
2022/06/16 05:19:04;;;;;;;25.75;15.73;;;;;;;;;;5092336;28;20058;-66
2022/06/16 05:21:29;;;;;;;21.17;15.20;;;;;;;;;;5090716;28;20048;-66
2022/06/16 05:23:55;;;;;;;20.42;13.95;;;;;;;;;;5094907;28;20032;-66
2022/06/16 05:26:20;;;;;;;22.70;14.38;;;;;;;;;;5093572;28;20044;-66
2022/06/16 05:28:46;;;;;;;22.40;13.55;;;;;;;;;;5086440;28;20078;-66
2022/06/16 05:31:11;;;;;;;23.13;14.18;;;;;;;;;;5089232;28;20020;-66
2022/06/16 05:33:36;;;;;;;18.75;13.27;;;;;;;;;;5089372;28;20028;-66
2022/06/16 05:36:05;;;;;;;22.40;12.88;;;;;;;;;;5095425;28;20323;-66
2022/06/16 05:38:31;;;;;;;18.90;13.20;;;;;;;;;;5091054;28;20582;-66
2022/06/16 05:41:07;;;;;;;18.35;12.52;;;;;;;;;;5089879;28;20179;-66
2022/06/16 05:43:34;;;;;;;20.88;12.18;;;;;;;;;;5088170;28;20126;-66
2022/06/16 05:46:00;;;;;;;20.25;12.60;;;;;;;;;;5087206;28;20576;-66
2022/06/16 05:48:26;;;;;;;24.63;13.13;;;;;;;;;;5093907;28;20032;-66
2022/06/16 05:50:54;;;;;;;19.40;12.70;;;;;;;;;;5088513;28;20127;-66
2022/06/16 05:53:20;;;;;;;16.15;11.55;;;;;;;;;;5088441;28;20452;-66
2022/06/16 05:55:46;;;;;;;18.17;11.75;;;;;;;;;;5086548;28;20515;-66
2022/06/16 05:58:11;;;;;;;17.42;11.50;;;;;;;;;;5081888;28;20115;-66
2022/06/16 06:00:37;;;;;;;17.33;11.93;;;;;;;;;;5087059;28;20072;-66
2022/06/16 06:03:03;;;;;;;15.43;11.32;;;;;;;;;;5089498;28;20067;-66
2022/06/16 06:05:28;;;;;;;16.40;11.60;;;;;;;;;;5089847;28;20123;-66
2022/06/16 06:16:35;;;;;;;17.40;11.43;;;;;;;;;;5077631;28;20105;-65
2022/06/16 06:22:02;;;;;;;16.52;11.13;;;;;;;;;;5082713;28;20079;-66
2022/06/16 06:24:34;;;;;;;15.48;10.98;;;;;;;;;;5091544;28;20059;-67
2022/06/16 06:27:04;;;;;;;17.42;11.35;;;;;;;;;;5087675;28;20582;-67
2022/06/16 06:29:30;;;;;;;19.75;11.18;;;;;;;;;;5085697;28;20040;-68
2022/06/16 06:31:57;;;;;;;18.75;12.00;;;;;;;;;;5093026;28;20047;-67
2022/06/16 06:34:22;;;;;;;16.40;11.02;;;;;;;;;;5081886;28;20531;-66
2022/06/16 06:36:48;;;;;;;17.83;11.80;;;;;;;;;;5082070;28;20036;-66
2022/06/16 06:39:13;;;;;;;19.38;11.77;;;;;;;;;;5085127;28;20032;-66
2022/06/16 06:41:39;;;;;;;15.68;11.00;;;;;;;;;;5079704;28;20036;-65
2022/06/16 06:44:04;;;;;;;17.98;12.15;;;;;;;;;;5086003;28;20020;-65
2022/06/16 06:46:30;;;;;;;15.57;11.35;;;;;;;;;;5084577;28;20024;-67
2022/06/16 06:48:55;;;;;;;17.92;11.43;;;;;;;;;;5084420;28;20058;-67
2022/06/16 06:51:20;;;;;;;16.27;11.57;;;;;;;;;;5084433;28;20033;-67
2022/06/16 06:53:46;;;;;;;15.15;11.43;;;;;;;;;;5084526;28;20040;-67
2022/06/16 06:56:13;;;;;;;18.17;11.43;;;;;;;;;;5079607;28;20559;-67
2022/06/16 06:58:39;;;;;;;17.30;10.80;;;;;;;;;;5082063;28;20027;-67
2022/06/16 07:01:06;;;;;;;17.35;12.32;;;;;;;;;;5084315;28;20028;-65
2022/06/16 07:03:32;;;;;;;18.65;11.30;;;;;;;;;;5087500;28;20043;-66
2022/06/16 07:06:01;;;;;;;16.95;12.02;;;;;;;;;;5095118;28;20032;-66
2022/06/16 07:08:27;;;;;;;18.92;11.80;;;;;;;;;;5085091;28;20123;-66
2022/06/16 07:10:53;;;;;;;18.35;11.57;;;;;;;;;;5087439;28;20614;-66
2022/06/16 07:13:18;;;;;;;16.15;11.25;;;;;;;;;;5088788;28;20111;-67
2022/06/16 07:15:44;;;;;;;17.95;12.13;;;;;;;;;;5086065;28;20050;-67
2022/06/16 07:18:09;;;;;;;19.38;12.43;;;;;;;;;;5084835;28;20623;-67
2022/06/16 07:20:35;;;;;;;20.17;12.07;;;;;;;;;;5084510;28;20096;-67
2022/06/16 07:23:00;;;;;;;24.38;13.80;;;;;;;;;;5083700;28;20181;-68
2022/06/16 07:25:26;;;;;;;21.95;12.98;;;;;;;;;;5089660;28;20651;-67
2022/06/16 07:27:53;;;;;;;17.20;11.85;;;;;;;;;;5090507;28;20035;-67
2022/06/16 07:30:20;;;;;;;16.70;11.85;;;;;;;;;;5080814;28;20114;-67
2022/06/16 07:32:47;;;;;;;19.48;12.75;;;;;;;;;;5082320;28;20025;-67
2022/06/16 07:35:16;;;;;;;20.73;12.32;;;;;;;;;;5082886;28;20401;-67
2022/06/16 07:37:41;;;;;;;17.13;12.05;;;;;;;;;;5081520;28;20099;-67
2022/06/16 07:40:08;;;;;;;18.02;12.60;;;;;;;;;;5083366;28;20119;-68
2022/06/16 07:42:34;;;;;;;18.85;13.57;;;;;;;;;;5080457;28;20040;-68
2022/06/16 07:45:01;;;;;;;19.23;11.45;;;;;;;;;;5087458;28;20043;-67
2022/06/16 07:47:27;;;;;;;17.20;11.68;;;;;;;;;;5081868;28;20082;-67
2022/06/16 07:49:53;;;;;;;18.10;12.07;;;;;;;;;;5081837;28;20073;-67
2022/06/16 07:52:19;;;;;;;18.58;11.30;;;;;;;;;;5081989;28;20028;-68
2022/06/16 07:54:44;;;;;;;16.63;10.90;;;;;;;;;;5082536;28;20512;-68
2022/06/16 07:57:10;;;;;;;17.25;10.90;;;;;;;;;;5080562;28;20089;-68
2022/06/16 07:59:36;;;;;;;18.10;11.38;;;;;;;;;;5081212;28;20603;-66
2022/06/16 08:02:02;;;;;;;14.38;11.27;;;;;;;;;;5079952;28;20028;-67
2022/06/16 08:04:28;;;;;;;17.67;11.65;;;;;;;;;;5080723;28;20059;-67
2022/06/16 08:07:00;;;;;;;17.05;10.73;;;;;;;;;;5078589;28;20037;-68
2022/06/16 08:09:26;;;;;;;19.35;12.80;;;;;;;;;;5079268;28;20043;-69
2022/06/16 08:12:03;;;;;;;17.92;10.75;;;;;;;;;;5078114;28;20401;-68
2022/06/16 08:14:36;;;;;;;17.05;11.45;;;;;;;;;;5080727;28;20035;-69
2022/06/16 08:17:03;;;;;;;17.15;10.50;;;;;;;;;;5077894;28;20107;-68
2022/06/16 08:19:28;;;;;;;14.80;9.77;;;;;;;;;;5078141;28;20214;-69
2022/06/16 08:21:53;;;;;;;16.85;10.90;;;;;;;;;;5075817;28;20047;-69
2022/06/16 08:24:19;;;;;;;19.13;10.95;;;;;;;;;;5084115;28;20024;-67
2022/06/16 08:26:45;;;;;;;15.55;10.48;;;;;;;;;;5081817;28;20467;-67
2022/06/16 08:29:13;;;;;;;17.42;10.13;;;;;;;;;;5084868;28;20544;-68
2022/06/16 08:31:39;;;;;;;14.55;9.75;;;;;;;;;;5084900;28;20022;-68
2022/06/16 08:34:05;;;;;;;19.48;9.75;;;;;;;;;;5085661;28;20126;-68
2022/06/16 08:36:31;;;;;;;13.88;9.30;;;;;;;;;;5082851;28;20038;-68
2022/06/16 08:38:57;;;;;;;15.85;9.88;;;;;;;;;;5087358;28;20028;-68
2022/06/16 08:41:28;;;;;;;17.52;9.55;;;;;;;;;;5088173;28;20040;-68
2022/06/16 08:44:12;;;;;;;16.35;9.02;;;;;;;;;;5086919;28;20027;-68
2022/06/16 08:46:47;;;;;;;13.93;8.65;;;;;;;;;;5086170;28;20032;-68
2022/06/16 08:49:30;;;;;;;15.25;9.70;;;;;;;;;;5082663;28;20079;-67
2022/06/16 08:52:28;;;;;;;11.97;8.57;;;;;;;;;;5076959;28;20520;-68
2022/06/16 08:55:23;;;;;;;13.20;8.18;;;;;;;;;;5089463;28;20135;-68
2022/06/16 08:57:58;;;;;;;13.30;8.35;;;;;;;;;;5084832;28;20061;-68
2022/06/16 09:00:31;;;;;;;12.35;7.72;;;;;;;;;;5079237;28;20528;-67
2022/06/16 09:03:06;;;;;;;;;;;;;;;;;;5080535;28;20067;-67
2022/06/16 09:05:49;;;;;;;13.27;7.50;;;;;;;;;;5087268;28;19951;-66
2022/06/16 09:08:33;;;;;;;11.55;7.90;;;;;;;;;;5088061;28;20185;-67
2022/06/16 09:11:10;;;;;;;10.30;6.82;;;;;;;;;;5092129;28;20028;-67
2022/06/16 09:14:00;;;;;;;11.95;7.40;;;;;;;;;;5085544;28;20029;-67
2022/06/16 09:16:47;;;;;;;12.68;7.75;;;;;;;;;;5085541;28;20047;-67
2022/06/16 09:19:50;;;;;;;14.55;7.90;;;;;;;;;;5080184;28;20132;-68
2022/06/16 09:22:37;;;;;;;12.50;6.90;;;;;;;;;;5082795;28;20580;-69
2022/06/16 09:25:22;;;;;;;10.13;7.05;;;;;;;;;;5080613;28;20048;-67
2022/06/16 09:28:01;;;;;;;11.00;7.47;;;;;;;;;;5080733;28;20071;-67
2022/06/16 09:30:31;;;;;;;12.40;6.90;;;;;;;;;;5083792;28;20052;-67
2022/06/16 09:33:01;;;;;;;13.00;8.38;;;;;;;;;;5083318;28;20090;-67
2022/06/16 09:35:52;;;;;;;11.05;7.15;;;;;;;;;;5085107;28;20028;-67
2022/06/16 09:38:44;;;;;;;10.52;7.10;;;;;;;;;;5086548;28;20043;-67
2022/06/16 09:44:09;;;;;;;16.55;7.60;;;;;;;;;;5084087;28;20043;-67
2022/06/16 09:46:42;;;;;;;9.00;6.83;;;;;;;;;;5085559;28;20028;-67
2022/06/16 09:49:15;;;;;;;12.65;5.80;;;;;;;;;;5084615;28;20279;-67
2022/06/16 09:51:56;;;;;;;8.68;5.28;;;;;;;;;;5081289;28;20093;-67
2022/06/16 09:54:31;;;;;;;9.73;5.50;;;;;;;;;;5084741;28;20578;-67
2022/06/16 09:57:13;;;;;;;10.82;6.47;;;;;;;;;;5084606;28;20555;-67
2022/06/16 09:59:44;;;;;;;8.98;5.03;;;;;;;;;;5073462;28;21916;-67
2022/06/16 10:02:22;;;;;;;9.02;6.20;;;;;;;;;;5078443;28;20046;-68
2022/06/16 10:04:52;;;;;;;10.88;5.32;;;;;;;;;;5083767;28;20064;-68
2022/06/16 10:07:17;;;;;;;10.63;5.65;;;;;;;;;;5067220;28;20457;-67
2022/06/16 10:09:54;;;;;;;7.43;5.43;;;;;;;;;;5078048;28;20610;-68
2022/06/16 10:12:42;;;;;;;8.38;5.60;;;;;;;;;;5086712;28;20040;-68
2022/06/16 10:15:18;;;;;;;9.65;5.95;;;;;;;;;;5074972;28;20040;-69
2022/06/16 10:17:45;;;;;;;9.75;6.22;;;;;;;;;;5078857;28;20047;-69
2022/06/16 10:20:13;;;;;;;11.00;6.90;;;;;;;;;;5081077;28;20039;-67
2022/06/16 10:22:43;;;;;;;10.48;6.50;;;;;;;;;;5078412;28;20051;-67
2022/06/16 10:25:22;;;;;;;12.27;6.75;;;;;;;;;;5079306;28;20089;-68
2022/06/16 10:27:54;;;;;;;13.43;7.25;;;;;;;;;;5070261;28;20055;-68
2022/06/16 10:30:26;;;;;;;13.27;6.43;;;;;;;;;;5075099;28;20063;-67
2022/06/16 10:33:15;;;;;;;10.20;7.43;;;;;;;;;;5077489;28;20040;-68
2022/06/16 10:35:57;;;;;;;17.83;7.00;;;;;;;;;;5079315;28;20556;-66
2022/06/16 10:38:39;;;;;;;11.00;7.05;;;;;;;;;;5076291;28;20068;-65
2022/06/16 10:41:25;;;;;;;12.50;7.35;;;;;;;;;;5081859;28;20111;-66
2022/06/16 10:43:53;;;;;;;11.98;5.38;;;;;;;;;;5079176;28;20076;-66
2022/06/16 10:46:29;;;;;;;8.93;5.90;;;;;;;;;;5078266;28;20032;-66
2022/06/16 10:48:56;;;;;;;13.07;6.70;;;;;;;;;;5079139;28;20044;-68
2022/06/16 10:51:24;;;;;;;11.25;6.25;;;;;;;;;;5082137;28;20447;-68
2022/06/16 10:54:11;;;;;;;13.75;6.05;;;;;;;;;;5081474;28;20039;-66
2022/06/16 10:56:39;;;;;;;9.45;6.03;;;;;;;;;;5078405;28;20089;-66
2022/06/16 10:59:25;;;;;;;14.48;7.38;;;;;;;;;;5081334;28;20093;-66
2022/06/16 11:01:56;;;;;;;11.98;7.03;;;;;;;;;;5080946;28;20047;-66
2022/06/16 11:04:24;;;;;;;10.23;6.20;;;;;;;;;;5078112;28;20031;-66
2022/06/16 11:06:55;;;;;;;8.82;5.65;;;;;;;;;;5078017;28;20043;-69
2022/06/16 11:09:28;;;;;;;7.82;6.05;;;;;;;;;;5071527;28;20051;-69
2022/06/16 11:11:59;;;;;;;11.38;5.20;;;;;;;;;;5082320;28;20032;-68
2022/06/16 11:14:47;;;;;;;17.15;5.65;;;;;;;;;;5078173;28;20043;-68
2022/06/16 11:17:27;;;;;;;9.55;6.80;;;;;;;;;;5081975;28;20051;-68
2022/06/16 11:20:03;;;;;;;8.73;5.40;;;;;;;;;;5077293;28;20077;-67
2022/06/16 11:22:28;;;;;;;13.80;6.20;;;;;;;;;;5098358;28;20568;-68
2022/06/16 11:25:15;;;;;;;8.45;6.18;;;;;;;;;;5083543;28;20082;-67
2022/06/16 11:27:45;;;;;;;12.57;4.82;;;;;;;;;;5065976;28;20044;-67
2022/06/16 11:30:34;;;;;;;11.30;5.20;;;;;;;;;;5075007;28;20038;-68
2022/06/16 11:33:00;;;;;;;13.07;5.28;;;;;;;;;;5079492;28;20067;-69
2022/06/16 11:35:44;;;;;;;8.65;4.60;;;;;;;;;;5079833;28;20060;-68
2022/06/16 11:38:21;;;;;;;6.30;4.18;;;;;;;;;;5078649;28;20036;-70
2022/06/16 11:40:53;;;;;;;6.07;4.15;;;;;;;;;;5079778;28;20039;-68
2022/06/16 11:43:57;;;;;;;13.57;4.30;;;;;;;;;;5081553;28;20081;-68
2022/06/16 11:46:31;;;;;;;7.85;4.00;;;;;;;;;;5061742;28;20044;-68
2022/06/16 11:49:09;;;;;;;6.78;3.90;;;;;;;;;;5054960;28;20056;-68
2022/06/16 11:51:45;;;;;;;5.40;3.78;;;;;;;;;;5057598;28;20390;-68
2022/06/16 11:54:33;;;;;;;3.95;3.55;;;;;;;;;;5056514;28;20918;-68
2022/06/16 11:57:02;;;;;;;5.47;3.88;;;;;;;;;;5057827;28;20177;-68
2022/06/16 11:59:58;;;;;;;6.13;3.75;;;;;;;;;;5059024;28;20033;-68
2022/06/16 12:03:12;;;;;;;7.65;3.78;;;;;;;;;;5058437;28;20613;-67
2022/06/16 12:05:41;;;;;;;;;;;;;;;;;;5063474;28;20052;-67
2022/06/16 12:08:39;;;;;;;5.93;4.32;;;;;;;;;;5061697;28;19924;-69
2022/06/16 12:11:14;;;;;;;8.10;3.78;;;;;;;;;;5059007;28;20063;-67
2022/06/16 12:13:53;;;;;;;5.93;3.42;;;;;;;;;;5064731;28;20549;-68
2022/06/16 12:16:26;;;;;;;5.57;3.55;;;;;;;;;;5058159;28;20293;-68
2022/06/16 12:19:10;;;;;;;6.72;3.63;;;;;;;;;;5057667;28;20068;-67
2022/06/16 12:21:46;;;;;;;6.95;4.63;;;;;;;;;;5051788;28;20141;-67
2022/06/16 12:24:34;;;;;;;5.22;3.97;;;;;;;;;;5070016;28;20028;-67
2022/06/16 12:27:07;;;;;;;5.85;4.20;;;;;;;;;;5059742;28;20728;-67
2022/06/16 12:29:32;;;;;;;5.88;3.75;;;;;;;;;;5060976;28;20045;-67
2022/06/16 12:32:05;;;;;;;5.43;3.67;;;;;;;;;;5062479;28;20047;-68
2022/06/16 12:34:40;;;;;;;5.68;3.85;;;;;;;;;;5070175;28;20098;-68
2022/06/16 12:37:15;;;;;;;6.22;4.20;;;;;;;;;;5061698;28;20513;-67
2022/06/16 12:39:52;;;;;;;5.63;3.50;;;;;;;;;;5063489;28;20024;-67
2022/06/16 12:42:21;;;;;;;7.40;3.80;;;;;;;;;;5061913;28;20044;-67
2022/06/16 12:44:51;;;;;;;5.63;3.90;;;;;;;;;;5064115;28;20044;-67
2022/06/16 12:47:27;;;;;;;5.95;3.70;;;;;;;;;;5064716;28;20028;-67
2022/06/16 12:49:52;;;;;;;7.50;3.80;;;;;;;;;;5065105;28;20040;-67
2022/06/16 12:52:54;;;;;;;7.57;4.10;;;;;;;;;;5067491;28;20245;-68
2022/06/16 12:55:26;;;;;;;5.75;3.92;;;;;;;;;;5042120;28;20037;-68
2022/06/16 12:57:57;;;;;;;6.25;4.18;;;;;;;;;;5062581;28;20502;-68
2022/06/16 13:00:27;;;;;;;4.72;3.90;;;;;;;;;;5057388;28;20041;-67
2022/06/16 13:03:01;;;;;;;5.53;3.92;;;;;;;;;;5063952;28;20041;-68
2022/06/16 13:05:27;;;;;;;8.23;3.95;;;;;;;;;;5065924;28;20040;-68
2022/06/16 13:07:56;;;;;;;5.30;3.33;;;;;;;;;;5062968;28;20059;-68
2022/06/16 13:10:22;;;;;;;5.60;3.95;;;;;;;;;;5065716;28;20039;-68
2022/06/16 13:12:56;;;;;;;4.53;3.50;;;;;;;;;;5067130;28;20033;-68
2022/06/16 13:15:27;;;;;;;6.63;3.78;;;;;;;;;;5066158;28;20035;-69
2022/06/16 13:17:57;;;;;;;10.60;4.38;;;;;;;;;;5063873;28;20033;-69
2022/06/16 13:20:27;;;;;;;5.72;3.90;;;;;;;;;;5062258;28;20040;-68
2022/06/16 13:23:02;;;;;;;8.60;3.78;;;;;;;;;;5060613;28;20053;-69
2022/06/16 13:25:42;;;;;;;5.05;3.60;;;;;;;;;;5066351;28;20027;-68
2022/06/16 13:28:26;;;;;;;6.28;3.55;;;;;;;;;;5066185;28;20661;-68
2022/06/16 13:31:09;;;;;;;;;;;;;;;;;;5063955;28;20043;-69
2022/06/16 13:33:52;;;;;;;5.50;3.17;;;;;;;;;;5060743;28;19944;-68
2022/06/16 13:36:48;;;;;;;4.22;3.40;;;;;;;;;;5064108;28;20119;-68
2022/06/16 13:39:48;;;;;;;12.25;4.25;;;;;;;;;;5063427;28;20059;-68
2022/06/16 13:42:21;;;;;;;6.53;3.33;;;;;;;;;;5062677;28;20036;-68
2022/06/16 13:45:11;;;;;;;4.95;3.38;;;;;;;;;;5065799;28;20198;-69
2022/06/16 13:47:44;;;;;;;6.32;3.80;;;;;;;;;;5062105;28;20059;-69
2022/06/16 13:50:20;;;;;;;;;;;;;;;;;;5066851;28;20032;-68
2022/06/16 13:53:01;;;;;;;6.63;3.60;;;;;;;;;;5063387;28;19916;-69
2022/06/16 13:55:33;;;;;;;4.25;3.10;;;;;;;;;;5086560;28;20084;-67
2022/06/16 13:58:20;;;;;;;7.65;3.50;;;;;;;;;;5085480;28;20028;-68
2022/06/16 14:01:01;;;;;;;10.48;3.47;;;;;;;;;;5085619;28;20043;-69
2022/06/16 14:03:27;;;;;;;4.22;3.78;;;;;;;;;;5086398;28;20050;-70
2022/06/16 14:05:56;;;;;;;5.90;3.50;;;;;;;;;;5078631;28;20564;-68
2022/06/16 14:08:24;;;;;;;4.05;3.40;;;;;;;;;;5060808;28;20053;-69
2022/06/16 14:11:26;;;;;;;3.67;2.97;;;;;;;;;;5063004;28;20055;-69
2022/06/16 14:14:20;;;;;;;4.10;3.70;;;;;;;;;;5057435;28;20527;-67
2022/06/16 14:16:54;;;;;;;5.18;3.30;;;;;;;;;;5055485;28;20111;-68
2022/06/16 14:19:45;;;;;;;5.38;3.25;;;;;;;;;;5081892;28;20043;-69
2022/06/16 14:22:17;;;;;;;6.53;3.60;;;;;;;;;;5080239;28;20127;-69
2022/06/16 14:24:57;;;;;;;5.10;3.20;;;;;;;;;;5081176;28;20394;-70
2022/06/16 14:27:33;;;;;;;7.82;3.30;;;;;;;;;;5085208;28;20577;-68
2022/06/16 14:30:01;;;;;;;4.45;3.53;;;;;;;;;;5080951;28;20061;-68
2022/06/16 14:32:36;;;;;;;5.72;3.10;;;;;;;;;;5076570;28;20036;-69
2022/06/16 14:35:10;;;;;;;4.82;3.40;;;;;;;;;;5083861;28;20130;-69
2022/06/16 14:38:07;;;;;;;6.35;3.60;;;;;;;;;;5080268;28;20020;-67
2022/06/16 14:40:41;;;;;;;7.78;3.88;;;;;;;;;;5077185;28;20040;-67
2022/06/16 14:43:15;;;;;;;4.75;3.05;;;;;;;;;;5084400;28;20111;-68
2022/06/16 14:45:49;;;;;;;4.75;3.13;;;;;;;;;;5075230;28;20177;-68
2022/06/16 14:48:25;;;;;;;8.23;3.15;;;;;;;;;;5073549;28;20039;-68
2022/06/16 14:50:55;;;;;;;5.65;3.58;;;;;;;;;;5082113;28;20039;-70
2022/06/16 14:53:25;;;;;;;5.75;3.15;;;;;;;;;;5080486;28;20040;-69
2022/06/16 14:56:02;;;;;;;4.72;3.90;;;;;;;;;;5083579;28;20024;-69
2022/06/16 14:58:43;;;;;;;5.78;3.80;;;;;;;;;;5082588;28;20086;-69
2022/06/16 15:01:08;;;;;;;3.90;3.50;;;;;;;;;;5081398;28;20397;-70
2022/06/16 15:03:34;;;;;;;7.57;3.13;;;;;;;;;;5076374;28;20556;-66
2022/06/16 15:06:07;;;;;;;4.55;3.47;;;;;;;;;;5079751;28;20766;-69
2022/06/16 15:08:35;;;;;;;5.35;3.55;;;;;;;;;;5083705;28;20032;-69
2022/06/16 15:11:04;;;;;;;6.18;3.47;;;;;;;;;;5084264;28;20024;-68
2022/06/16 15:13:34;;;;;;;5.70;3.50;;;;;;;;;;5086111;28;20119;-68
2022/06/16 15:16:05;;;;;;;5.70;3.42;;;;;;;;;;5082709;28;20071;-68
2022/06/16 15:18:35;;;;;;;7.47;4.00;;;;;;;;;;5085449;28;20040;-68
2022/06/16 15:21:07;;;;;;;8.73;4.30;;;;;;;;;;5077638;28;20036;-70
2022/06/16 15:23:37;;;;;;;6.10;3.67;;;;;;;;;;5079554;28;20051;-68